createdAt,value
2022-08-20T00:03:09.886Z,19.2
2022-08-20T00:05:16.977Z,19.2
2022-08-20T00:07:20.787Z,19.2
2022-08-20T00:09:24.547Z,19.2
2022-08-20T00:11:29.013Z,19.2
2022-08-20T00:13:32.175Z,19.2
2022-08-20T00:15:35.969Z,19.1
2022-08-20T00:17:39.781Z,19.1
2022-08-20T00:19:46.874Z,19.1
2022-08-20T00:21:50.679Z,19.1
2022-08-20T00:23:54.491Z,19.1
2022-08-20T00:25:58.289Z,19.1
2022-08-20T00:28:02.109Z,19
2022-08-20T00:30:05.914Z,19.1
2022-08-20T00:32:09.713Z,19
2022-08-20T00:36:20.637Z,19
2022-08-20T00:38:24.431Z,19
2022-08-20T00:40:28.222Z,19
2022-08-20T00:42:32.057Z,19.1
2022-08-20T00:44:35.850Z,19.1
2022-08-20T00:53:57.919Z,19
2022-08-20T00:56:01.730Z,19
2022-08-20T00:58:05.706Z,19.1
2022-08-20T01:00:09.359Z,19.1
2022-08-20T01:02:18.192Z,19.1
2022-08-20T01:04:21.895Z,19
2022-08-20T01:06:25.702Z,19
2022-08-20T01:08:29.448Z,19
2022-08-20T01:10:33.260Z,19
2022-08-20T01:12:37.067Z,18.9
2022-08-20T01:14:40.867Z,18.9
2022-08-20T01:16:47.985Z,19
2022-08-20T01:18:51.777Z,18.9
2022-08-20T01:20:55.589Z,19
2022-08-20T01:22:59.417Z,19
2022-08-20T01:25:03.219Z,19
2022-08-20T01:27:07.022Z,19
2022-08-20T01:29:10.834Z,19
2022-08-20T01:33:21.737Z,18.9
2022-08-20T01:35:25.545Z,18.9
2022-08-20T01:37:31.638Z,18.9
2022-08-20T01:39:33.180Z,18.9
2022-08-20T01:41:36.957Z,18.9
2022-08-20T01:43:40.896Z,18.9
2022-08-20T01:45:48.687Z,18.9
2022-08-20T01:47:51.720Z,18.9
2022-08-20T01:49:55.501Z,18.9
2022-08-20T01:50:59.040Z,18.9
2022-08-20T01:53:03.175Z,18.8
2022-08-20T01:55:06.635Z,18.8
2022-08-20T01:57:10.450Z,18.8
2022-08-20T01:59:17.541Z,18.8
2022-08-20T02:01:21.399Z,18.8
2022-08-20T02:03:25.160Z,18.8
2022-08-20T02:05:29.942Z,18.7
2022-08-20T02:07:32.798Z,18.7
2022-08-20T02:11:40.433Z,18.6
2022-08-20T02:15:51.360Z,18.6
2022-08-20T02:19:58.950Z,18.6
2022-08-20T02:22:02.778Z,18.6
2022-08-20T02:26:10.422Z,18.6
2022-08-20T02:28:17.518Z,18.6
2022-08-20T02:30:28.199Z,18.6
2022-08-20T02:32:33.945Z,18.6
2022-08-20T02:34:28.951Z,18.6
2022-08-20T02:36:32.764Z,18.6
2022-08-20T02:38:36.593Z,18.6
2022-08-20T02:40:40.405Z,18.5
2022-08-20T02:49:19.807Z,18.5
2022-08-20T02:51:30.536Z,18.5
2022-08-20T02:55:34.553Z,18.6
2022-08-20T02:57:38.338Z,18.5
2022-08-20T02:59:42.178Z,18.5
2022-08-20T03:01:45.955Z,18.5
2022-08-20T03:10:04.534Z,18.4
2022-08-20T03:12:08.342Z,18.4
2022-08-20T03:14:12.176Z,18.3
2022-08-20T03:20:23.842Z,18.2
2022-08-20T03:24:34.550Z,18.1
2022-08-20T03:28:42.219Z,18.1
2022-08-20T03:30:46.006Z,18.2
2022-08-20T03:34:53.622Z,18.2
2022-08-20T03:39:04.617Z,18.2
2022-08-20T03:41:08.418Z,18.2
2022-08-20T03:43:12.229Z,18.2
2022-08-20T03:46:23.641Z,18.3
2022-08-20T03:48:23.417Z,18.3
2022-08-20T03:56:42.016Z,18.3
2022-08-20T04:04:57.292Z,18.2
2022-08-20T04:07:04.422Z,18.2
2022-08-20T04:09:09.714Z,18.2
2022-08-20T04:11:12.062Z,18.2
2022-08-20T04:13:15.898Z,18.2
2022-08-20T04:17:23.517Z,18.2
2022-08-20T04:21:34.488Z,18.2
2022-08-20T04:23:38.300Z,18.2
2022-08-20T04:25:43.198Z,18.2
2022-08-20T04:27:45.960Z,18.1
2022-08-20T04:31:53.607Z,18.1
2022-08-20T04:36:04.552Z,18
2022-08-20T04:38:08.381Z,18
2022-08-20T04:40:12.374Z,18
2022-08-20T04:43:19.600Z,18
2022-08-20T04:45:23.433Z,18
2022-08-20T04:47:34.687Z,18
2022-08-20T04:49:34.355Z,18.1
2022-08-20T04:51:38.199Z,18.1
2022-08-20T04:53:42.011Z,18.1
2022-08-20T04:55:45.860Z,18
2022-08-20T04:57:49.682Z,17.9
2022-08-20T04:59:57.703Z,17.9
2022-08-20T05:01:57.328Z,17.9
2022-08-20T05:04:04.427Z,18
2022-08-20T05:06:08.226Z,18
2022-08-20T05:08:18.798Z,18
2022-08-20T05:10:15.887Z,18
2022-08-20T05:12:19.734Z,18
2022-08-20T05:14:23.547Z,18
2022-08-20T05:16:27.398Z,18
2022-08-20T05:18:34.488Z,18.1
2022-08-20T05:20:38.321Z,18
2022-08-20T05:22:42.169Z,18.1
2022-08-20T05:24:46.004Z,18.1
2022-08-20T05:26:49.793Z,18
2022-08-20T05:28:57.762Z,18.1
2022-08-20T05:30:57.466Z,18.1
2022-08-20T05:33:04.556Z,18
2022-08-20T05:35:08.386Z,18
2022-08-20T05:37:12.283Z,18
2022-08-20T05:38:15.773Z,18
2022-08-20T05:40:19.658Z,18.1
2022-08-20T05:42:23.416Z,18.1
2022-08-20T05:44:27.251Z,18.2
2022-08-20T05:46:34.351Z,18.2
2022-08-20T05:48:38.194Z,18.1
2022-08-20T05:50:41.985Z,18
2022-08-20T05:52:45.785Z,18
2022-08-20T06:01:04.466Z,18
2022-08-20T06:03:08.201Z,18
2022-08-20T06:05:12.040Z,18
2022-08-20T06:07:15.866Z,18
2022-08-20T06:09:30.952Z,18
2022-08-20T06:11:23.484Z,18.1
2022-08-20T06:13:27.316Z,18
2022-08-20T06:19:43.542Z,18
2022-08-20T06:25:53.542Z,18
2022-08-20T06:27:57.540Z,18.1
2022-08-20T06:30:04.485Z,18.2
2022-08-20T06:34:12.128Z,18.3
2022-08-20T19:06:17.919Z,20.4
2022-08-20T19:08:21.722Z,20.3
2022-08-20T19:10:28.145Z,20.3
2022-08-20T19:12:53.820Z,20.2
2022-08-20T19:14:57.531Z,20.1
2022-08-20T19:19:08.428Z,20.1
2022-08-20T19:21:15.664Z,20
2022-08-20T19:23:10.200Z,20
2022-08-20T19:25:13.986Z,20
2022-08-20T19:27:17.786Z,19.9
2022-08-20T19:29:21.605Z,19.9
2022-08-20T19:33:44.035Z,19.7
2022-08-20T19:35:36.238Z,19.7
2022-08-20T19:37:46.556Z,19.7
2022-08-20T19:39:43.874Z,19.6
2022-08-20T19:43:51.466Z,19.4
2022-08-20T19:48:02.346Z,19.3
2022-08-20T19:50:06.167Z,19.2
2022-08-20T19:52:09.962Z,19.1
2022-08-20T19:54:13.877Z,19.1
2022-08-20T19:56:17.576Z,19
2022-08-20T19:58:26.014Z,18.9
2022-08-20T20:00:25.212Z,18.9
2022-08-20T20:02:32.320Z,18.8
2022-08-20T20:04:36.129Z,18.8
2022-08-20T20:06:39.954Z,18.7
2022-08-20T20:07:43.493Z,18.7
2022-08-20T20:09:47.284Z,18.6
2022-08-20T20:11:51.112Z,18.6
2022-08-20T20:13:54.915Z,18.5
2022-08-20T20:16:02.045Z,18.5
2022-08-20T20:18:05.853Z,18.4
2022-08-20T20:22:20.008Z,18.4
2022-08-20T20:24:17.289Z,18.4
2022-08-20T20:26:21.100Z,18.3
2022-08-20T20:28:24.906Z,18.3
2022-08-20T20:30:32.045Z,18.2
2022-08-20T20:32:35.844Z,18.2
2022-08-20T20:34:55.465Z,18.2
2022-08-20T20:38:47.344Z,18.2
2022-08-20T20:42:54.996Z,18.1
2022-08-20T20:45:02.094Z,18
2022-08-20T20:47:05.947Z,18
2022-08-20T20:49:09.750Z,17.9
2022-08-20T20:51:13.602Z,17.9
2022-08-20T20:53:17.411Z,17.8
2022-08-20T20:55:21.240Z,17.8
2022-08-20T20:57:38.046Z,17.8
2022-08-20T20:59:32.192Z,17.7
2022-08-20T21:03:39.866Z,17.6
2022-08-20T21:04:43.450Z,17.6
2022-08-20T21:06:47.266Z,17.5
2022-08-20T21:08:51.106Z,17.4
2022-08-20T21:10:54.962Z,17.4
2022-08-20T21:13:02.073Z,17.4
2022-08-20T21:15:05.906Z,17.3
2022-08-20T21:17:09.765Z,17.3
2022-08-20T21:19:13.568Z,17.3
2022-08-20T21:23:21.231Z,17.2
2022-08-20T21:25:25.075Z,17.1
2022-08-20T21:27:32.193Z,17.1
2022-08-20T21:29:36.049Z,17.1
2022-08-20T21:31:39.871Z,17
2022-08-20T21:33:43.721Z,17
2022-08-20T21:35:47.569Z,16.9
2022-08-20T21:37:51.413Z,16.9
2022-08-20T21:39:55.378Z,16.9
2022-08-20T21:42:02.376Z,16.8
2022-08-20T21:44:06.244Z,16.8
2022-08-20T21:46:10.100Z,16.8
2022-08-20T21:48:14.151Z,16.7
2022-08-20T21:50:18.816Z,16.7
2022-08-20T21:52:21.596Z,16.7
2022-08-20T21:54:25.457Z,16.7
2022-08-20T21:56:32.568Z,16.7
2022-08-20T21:58:36.415Z,16.7
2022-08-20T22:00:40.285Z,16.6
2022-08-20T22:03:49.600Z,16.5
2022-08-20T22:10:02.535Z,16.5
2022-08-20T22:12:06.386Z,16.5
2022-08-20T22:14:10.241Z,16.5
2022-08-20T22:16:14.078Z,16.4
2022-08-20T22:18:17.923Z,16.4
2022-08-20T22:20:21.772Z,16.4
2022-08-20T22:22:25.615Z,16.4
2022-08-20T22:24:32.731Z,16.3
2022-08-20T22:26:36.599Z,16.3
2022-08-20T22:28:40.425Z,16.3
2022-08-20T22:30:44.287Z,16.2
2022-08-20T22:34:51.996Z,16.2
2022-08-20T22:36:55.832Z,16.1
2022-08-20T22:43:10.653Z,16
2022-08-20T22:45:14.783Z,16
2022-08-20T22:47:18.317Z,16
2022-08-20T22:53:33.142Z,16
2022-08-20T22:55:37.002Z,16
2022-08-20T22:57:40.850Z,16
2022-08-20T23:00:11.203Z,15.9
2022-08-20T23:02:15.057Z,15.9
2022-08-20T23:04:18.909Z,15.9
2022-08-20T23:06:26.021Z,15.8
2022-08-20T23:08:29.866Z,15.8
2022-08-20T23:10:33.725Z,15.9
2022-08-20T23:12:37.557Z,15.9
2022-08-20T23:14:41.383Z,15.9
2022-08-20T23:16:45.248Z,15.8
2022-08-20T23:18:49.089Z,15.8
2022-08-20T23:20:56.255Z,15.8
2022-08-20T23:23:00.078Z,15.8
2022-08-20T23:25:03.896Z,15.8
2022-08-20T23:27:07.766Z,15.8
2022-08-20T23:29:11.613Z,15.8
2022-08-20T23:31:15.447Z,15.8
2022-08-20T23:33:19.293Z,15.8
2022-08-20T23:35:26.437Z,15.8
2022-08-20T23:37:30.297Z,15.7
2022-08-20T23:39:34.223Z,15.7
2022-08-20T23:43:41.855Z,15.7
2022-08-20T23:45:45.723Z,15.7
2022-08-20T23:47:49.551Z,15.6
2022-08-20T23:49:56.701Z,15.6
2022-08-20T23:52:00.571Z,15.5
2022-08-20T23:54:04.367Z,15.5
2022-08-20T23:55:07.949Z,15.5
2022-08-20T23:57:11.806Z,15.5
2022-08-20T23:59:15.749Z,15.5
